Time,TemperatureF,DewpointF,PressureIn,WindDirection,WindDirectionDegrees,WindSpeedMPH,WindSpeedGustMPH,Humidity,HourlyPrecipIn,Conditions,Clouds,dailyrainin,SoftwareType,DateUTC
2013-04-21 00:00:00,30.9,24.8,27.56,East,92,3.9,8.7,77,0.00,--,--,0.00,awk and wget,2013-04-21 04:00:00,
2013-04-21 00:05:00,30.0,24.0,27.56,ENE,71,4.7,7.4,78,0.00,--,--,0.00,awk and wget,2013-04-21 04:05:00,
2013-04-21 00:10:00,29.1,24.3,27.56,ENE,62,5.2,8.1,82,0.00,--,--,0.00,awk and wget,2013-04-21 04:10:00,
2013-04-21 00:15:00,28.8,24.5,27.56,ENE,58,4.9,9.5,83,0.00,--,--,0.00,awk and wget,2013-04-21 04:15:00,
2013-04-21 00:20:00,29.6,24.8,27.56,NE,43,4.6,9.5,82,0.00,--,--,0.00,awk and wget,2013-04-21 04:20:00,
2013-04-21 00:25:00,29.4,24.0,27.57,NE,41,5.2,9.5,80,0.00,--,--,0.00,awk and wget,2013-04-21 04:25:00,
2013-04-21 00:30:00,29.0,23.6,27.57,NE,42,6.1,9.3,80,0.00,--,--,0.00,awk and wget,2013-04-21 04:30:00,
2013-04-21 00:35:00,28.8,23.5,27.57,NE,53,5.3,9.3,80,0.00,--,--,0.00,awk and wget,2013-04-21 04:35:00,
2013-04-21 00:40:00,28.4,23.6,27.57,NE,49,4.7,9.3,82,0.00,--,--,0.00,awk and wget,2013-04-21 04:40:00,
2013-04-21 00:45:00,28.0,23.9,27.57,NE,52,3.7,7.7,84,0.00,--,--,0.00,awk and wget,2013-04-21 04:45:00,
2013-04-21 00:50:00,27.4,23.6,27.57,NE,54,5.6,7.0,85,0.00,--,--,0.00,awk and wget,2013-04-21 04:50:00,
2013-04-21 00:55:00,27.3,23.8,27.57,NE,48,6.9,7.0,86,0.00,--,--,0.00,awk and wget,2013-04-21 04:55:00,
2013-04-21 01:00:00,27.2,23.8,27.57,NE,48,6.8,7.0,87,0.00,--,--,0.00,awk and wget,2013-04-21 05:00:00,
2013-04-21 01:05:00,27.1,23.9,27.57,NE,54,6.2,6.2,87,0.00,--,--,0.00,awk and wget,2013-04-21 05:05:00,
2013-04-21 01:10:00,26.9,23.6,27.57,NE,48,5.0,6.8,87,0.00,--,--,0.00,awk and wget,2013-04-21 05:10:00,
2013-04-21 01:15:00,26.9,23.5,27.57,ENE,74,2.6,6.8,86,0.00,--,--,0.00,awk and wget,2013-04-21 05:15:00,
2013-04-21 01:20:00,26.5,23.2,27.57,ENE,58,2.9,6.8,87,0.00,--,--,0.00,awk and wget,2013-04-21 05:20:00,
2013-04-21 01:30:00,26.6,23.5,27.58,ENE,74,2.4,7.4,88,0.00,--,--,0.00,awk and wget,2013-04-21 05:30:00,
2013-04-21 01:40:00,26.8,23.6,27.57,ENE,65,4.4,7.4,87,0.00,--,--,0.00,awk and wget,2013-04-21 05:40:00,
2013-04-21 01:45:00,26.4,23.2,27.57,ENE,73,4.9,5.6,87,0.00,--,--,0.00,awk and wget,2013-04-21 05:45:00,
2013-04-21 01:50:00,26.3,23.3,27.57,ENE,74,6.2,6.2,88,0.00,--,--,0.00,awk and wget,2013-04-21 05:50:00,
2013-04-21 02:00:00,26.2,23.4,27.58,ENE,60,6.3,7.9,88,0.00,--,--,0.00,awk and wget,2013-04-21 06:00:00,
2013-04-21 02:05:00,26.3,23.5,27.58,NE,54,6.2,8.1,89,0.00,--,--,0.00,awk and wget,2013-04-21 06:05:00,
2013-04-21 02:10:00,26.5,23.6,27.58,ENE,58,6.0,8.1,88,0.00,--,--,0.00,awk and wget,2013-04-21 06:10:00,
2013-04-21 02:15:00,26.5,23.5,27.58,NE,56,4.4,8.1,88,0.00,--,--,0.00,awk and wget,2013-04-21 06:15:00,
2013-04-21 02:20:00,26.5,23.4,27.58,NE,54,4.8,8.0,87,0.00,--,--,0.00,awk and wget,2013-04-21 06:20:00,
2013-04-21 02:25:00,26.6,23.6,27.58,NE,53,5.7,6.2,88,0.00,--,--,0.00,awk and wget,2013-04-21 06:25:00,
2013-04-21 02:30:00,25.6,22.8,27.58,SE,133,1.4,6.2,88,0.00,--,--,0.00,awk and wget,2013-04-21 06:30:00,
2013-04-21 02:35:00,25.7,22.7,27.58,ESE,122,0.5,5.3,88,0.00,--,--,0.00,awk and wget,2013-04-21 06:35:00,
2013-04-21 02:40:00,25.6,22.7,27.58,ESE,102,0.8,5.8,88,0.00,--,--,0.00,awk and wget,2013-04-21 06:40:00,
2013-04-21 02:45:00,25.5,22.8,27.58,NNE,31,1.2,6.1,89,0.00,--,--,0.00,awk and wget,2013-04-21 06:45:00,
2013-04-21 02:50:00,25.4,22.7,27.58,North,7,1.7,6.6,89,0.00,--,--,0.00,awk and wget,2013-04-21 06:50:00,
2013-04-21 03:00:00,25.7,23.1,27.58,NE,35,4.2,7.2,89,0.00,--,--,0.00,awk and wget,2013-04-21 07:00:00,
2013-04-21 03:05:00,25.5,22.8,27.58,NNE,27,3.2,7.4,89,0.00,--,--,0.00,awk and wget,2013-04-21 07:05:00,
2013-04-21 03:10:00,25.7,22.9,27.58,NNW,341,3.3,7.4,88,0.00,--,--,0.00,awk and wget,2013-04-21 07:10:00,
2013-04-21 03:15:00,26.1,23.1,27.58,NE,38,2.9,7.4,88,0.00,--,--,0.00,awk and wget,2013-04-21 07:15:00,
2013-04-21 03:20:00,25.9,22.9,27.58,NE,45,0.8,6.8,88,0.00,--,--,0.00,awk and wget,2013-04-21 07:20:00,
2013-04-21 03:30:00,25.6,22.5,27.58,NE,46,0.3,5.7,87,0.00,--,--,0.00,awk and wget,2013-04-21 07:30:00,
2013-04-21 03:35:00,25.3,22.4,27.58,NE,46,1.1,5.4,88,0.00,--,--,0.00,awk and wget,2013-04-21 07:35:00,
2013-04-21 03:40:00,25.2,22.4,27.58,NNW,341,3.7,5.3,88,0.00,--,--,0.00,awk and wget,2013-04-21 07:40:00,
2013-04-21 03:45:00,24.7,22.0,27.59,NE,43,4.0,6.6,89,0.00,--,--,0.00,awk and wget,2013-04-21 07:45:00,
2013-04-21 03:50:00,24.4,21.8,27.59,NE,34,3.5,7.5,89,0.00,--,--,0.00,awk and wget,2013-04-21 07:50:00,
2013-04-21 03:55:00,24.5,22.1,27.59,NNE,33,3.5,7.6,90,0.00,--,--,0.00,awk and wget,2013-04-21 07:55:00,
2013-04-21 04:00:00,24.2,21.8,27.59,NE,40,3.2,7.6,90,0.00,--,--,0.00,awk and wget,2013-04-21 08:00:00,
2013-04-21 04:10:00,24.9,22.6,27.59,NNE,20,2.5,6.0,90,0.00,--,--,0.00,awk and wget,2013-04-21 08:10:00,
2013-04-21 04:15:00,24.7,22.4,27.59,NNE,30,0.9,6.0,90,0.00,--,--,0.00,awk and wget,2013-04-21 08:15:00,
2013-04-21 04:20:00,24.3,22.1,27.59,ENE,69,2.2,5.5,91,0.00,--,--,0.00,awk and wget,2013-04-21 08:20:00,
2013-04-21 04:30:00,23.8,21.8,27.60,ENE,67,0.7,3.6,91,0.00,--,--,0.00,awk and wget,2013-04-21 08:30:00,
2013-04-21 04:35:00,23.8,21.9,27.59,NE,55,2.3,3.0,92,0.00,--,--,0.00,awk and wget,2013-04-21 08:35:00,
2013-04-21 04:40:00,23.5,21.6,27.60,ENE,61,0.0,3.0,92,0.00,--,--,0.00,awk and wget,2013-04-21 08:40:00,
2013-04-21 04:45:00,23.5,21.6,27.60,ENE,61,0.1,3.0,92,0.00,--,--,0.00,awk and wget,2013-04-21 08:45:00,
2013-04-21 04:50:00,23.3,21.4,27.60,NNW,340,1.5,4.1,92,0.00,--,--,0.00,awk and wget,2013-04-21 08:50:00,
2013-04-21 04:55:00,22.9,21.2,27.60,NNW,340,1.2,4.1,92,0.00,--,--,0.00,awk and wget,2013-04-21 08:55:00,
2013-04-21 05:00:00,23.3,21.7,27.60,ENE,67,1.2,4.4,93,0.00,--,--,0.00,awk and wget,2013-04-21 09:00:00,
2013-04-21 05:05:00,23.6,22.0,27.60,ENE,58,1.4,4.4,93,0.00,--,--,0.00,awk and wget,2013-04-21 09:05:00,
2013-04-21 05:10:00,23.8,22.2,27.61,NE,39,2.3,5.5,93,0.00,--,--,0.00,awk and wget,2013-04-21 09:10:00,
2013-04-21 05:15:00,23.9,22.2,27.61,NE,44,2.9,5.7,93,0.00,--,--,0.00,awk and wget,2013-04-21 09:15:00,
2013-04-21 05:20:00,23.7,22.0,27.61,NE,49,4.0,7.1,93,0.00,--,--,0.00,awk and wget,2013-04-21 09:20:00,
2013-04-21 05:30:00,24.1,22.3,27.61,East,101,2.1,23.2,92,0.00,--,--,0.00,awk and wget,2013-04-21 09:30:00,
2013-04-21 05:35:00,23.9,22.0,27.61,East,100,2.0,23.2,92,0.00,--,--,0.00,awk and wget,2013-04-21 09:35:00,
2013-04-21 05:40:00,23.8,21.9,27.62,ENE,69,1.9,5.1,92,0.00,--,--,0.00,awk and wget,2013-04-21 09:40:00,
2013-04-21 05:45:00,23.9,22.0,27.62,ENE,68,0.6,4.0,92,0.00,--,--,0.00,awk and wget,2013-04-21 09:45:00,
2013-04-21 05:50:00,23.7,21.7,27.62,ENE,71,0.8,4.4,92,0.00,--,--,0.00,awk and wget,2013-04-21 09:50:00,
2013-04-21 06:00:00,23.8,22.0,27.63,NNW,341,0.4,5.2,92,0.00,--,--,0.00,awk and wget,2013-04-21 10:00:00,
2013-04-21 06:10:00,23.5,21.6,27.63,NNW,336,2.4,5.2,92,0.00,--,--,0.00,awk and wget,2013-04-21 10:10:00,
2013-04-21 06:15:00,23.7,21.9,27.63,NNW,338,1.2,5.2,92,0.00,--,--,0.00,awk and wget,2013-04-21 10:15:00,
2013-04-21 06:20:00,23.4,21.6,27.64,NNW,340,1.5,5.1,92,0.00,--,--,0.00,awk and wget,2013-04-21 10:20:00,
2013-04-21 06:30:00,23.7,22.0,27.64,NNW,339,0.8,4.3,92,0.00,--,--,0.00,awk and wget,2013-04-21 10:30:00,
2013-04-21 06:35:00,23.7,21.9,27.64,NNW,340,0.2,4.2,92,0.00,--,--,0.00,awk and wget,2013-04-21 10:35:00,
2013-04-21 06:40:00,23.7,22.0,27.64,North,352,0.8,4.5,92,0.00,--,--,0.00,awk and wget,2013-04-21 10:40:00,
2013-04-21 06:45:00,23.5,21.7,27.65,NNW,341,1.5,4.5,92,0.00,--,--,0.00,awk and wget,2013-04-21 10:45:00,
2013-04-21 06:50:00,23.3,21.6,27.65,NNE,12,1.7,4.5,92,0.00,--,--,0.00,awk and wget,2013-04-21 10:50:00,
2013-04-21 07:00:00,23.3,21.6,27.66,NNE,31,0.4,4.7,93,0.00,--,--,0.00,awk and wget,2013-04-21 11:00:00,
2013-04-21 07:10:00,24.1,22.5,27.66,NE,54,1.9,4.9,93,0.00,--,--,0.00,awk and wget,2013-04-21 11:10:00,
2013-04-21 07:15:00,24.7,23.0,27.66,NE,54,2.4,4.9,93,0.00,--,--,0.00,awk and wget,2013-04-21 11:15:00,
2013-04-21 07:20:00,25.1,23.2,27.67,NE,54,3.1,4.7,92,0.00,--,--,0.00,awk and wget,2013-04-21 11:20:00,
2013-04-21 07:25:00,25.5,23.3,27.66,NE,43,4.2,5.3,91,0.00,--,--,0.00,awk and wget,2013-04-21 11:25:00,
2013-04-21 07:30:00,26.1,23.6,27.67,NE,53,5.0,5.5,90,0.00,--,--,0.00,awk and wget,2013-04-21 11:30:00,
2013-04-21 07:35:00,26.5,23.8,27.67,NE,47,4.7,5.7,89,0.00,--,--,0.00,awk and wget,2013-04-21 11:35:00,
2013-04-21 07:40:00,27.1,24.1,27.67,ENE,66,4.9,5.7,88,0.00,--,--,0.00,awk and wget,2013-04-21 11:40:00,
2013-04-21 07:45:00,27.7,24.1,27.67,NE,54,5.8,5.8,85,0.00,--,--,0.00,awk and wget,2013-04-21 11:45:00,
2013-04-21 07:50:00,28.7,24.1,27.67,ENE,68,4.4,6.2,82,0.00,--,--,0.00,awk and wget,2013-04-21 11:50:00,
2013-04-21 07:55:00,29.3,24.2,27.67,East,83,2.6,6.2,80,0.00,--,--,0.00,awk and wget,2013-04-21 11:55:00,
2013-04-21 08:00:00,30.2,24.8,27.67,ENE,67,2.0,6.5,79,0.00,--,--,0.00,awk and wget,2013-04-21 12:00:00,
2013-04-21 08:05:00,30.8,24.6,27.67,East,86,3.3,7.8,77,0.00,--,--,0.00,awk and wget,2013-04-21 12:05:00,
2013-04-21 08:10:00,31.3,24.9,27.67,East,88,2.3,7.8,76,0.00,--,--,0.00,awk and wget,2013-04-21 12:10:00,
2013-04-21 08:15:00,31.8,24.7,27.67,NE,52,2.3,7.8,74,0.00,--,--,0.00,awk and wget,2013-04-21 12:15:00,
2013-04-21 08:20:00,32.2,24.2,27.67,ENE,65,2.6,7.8,72,0.00,--,--,0.00,awk and wget,2013-04-21 12:20:00,
2013-04-21 08:25:00,32.8,24.1,27.67,East,91,4.6,7.7,69,0.00,--,--,0.00,awk and wget,2013-04-21 12:25:00,
2013-04-21 08:30:00,33.4,24.3,27.68,East,83,3.7,7.7,69,0.00,--,--,0.00,awk and wget,2013-04-21 12:30:00,
2013-04-21 08:35:00,33.7,24.0,27.68,East,90,2.5,7.7,67,0.00,--,--,0.00,awk and wget,2013-04-21 12:35:00,
2013-04-21 08:40:00,33.9,24.2,27.68,East,86,4.0,7.9,67,0.00,--,--,0.00,awk and wget,2013-04-21 12:40:00,
2013-04-21 08:45:00,35.0,25.2,27.68,ENE,59,2.9,7.9,67,0.00,--,--,0.00,awk and wget,2013-04-21 12:45:00,
2013-04-21 08:50:00,35.4,23.5,27.68,ENE,68,0.6,7.9,61,0.00,--,--,0.00,awk and wget,2013-04-21 12:50:00,
2013-04-21 08:55:00,36.7,24.7,27.68,ENE,74,2.8,7.6,61,0.00,--,--,0.00,awk and wget,2013-04-21 12:55:00,
2013-04-21 09:00:00,36.7,23.6,27.68,ENE,66,4.0,8.0,58,0.00,--,--,0.00,awk and wget,2013-04-21 13:00:00,
2013-04-21 09:05:00,37.2,23.7,27.68,East,79,4.0,8.8,57,0.00,--,--,0.00,awk and wget,2013-04-21 13:05:00,
2013-04-21 09:10:00,37.5,23.1,27.68,ENE,67,3.0,8.8,55,0.00,--,--,0.00,awk and wget,2013-04-21 13:10:00,
2013-04-21 09:15:00,37.0,22.0,27.68,NE,47,4.3,9.7,54,0.00,--,--,0.00,awk and wget,2013-04-21 13:15:00,
2013-04-21 09:20:00,37.4,23.1,27.68,NE,56,2.8,9.7,55,0.00,--,--,0.00,awk and wget,2013-04-21 13:20:00,
2013-04-21 09:30:00,38.4,23.1,27.68,East,79,2.4,7.9,53,0.00,--,--,0.00,awk and wget,2013-04-21 13:30:00,
2013-04-21 09:35:00,39.0,22.3,27.68,NNE,22,3.5,8.4,50,0.00,--,--,0.00,awk and wget,2013-04-21 13:35:00,
2013-04-21 09:40:00,39.0,21.8,27.68,NNW,337,2.4,8.4,49,0.00,--,--,0.00,awk and wget,2013-04-21 13:40:00,
2013-04-21 09:45:00,39.3,21.9,27.68,NNE,14,1.1,8.4,49,0.00,--,--,0.00,awk and wget,2013-04-21 13:45:00,
2013-04-21 09:50:00,39.8,20.9,27.68,NNW,335,3.9,8.4,46,0.00,--,--,0.00,awk and wget,2013-04-21 13:50:00,
2013-04-21 10:00:00,41.0,21.3,27.68,East,80,1.4,9.1,45,0.00,--,--,0.00,awk and wget,2013-04-21 14:00:00,
2013-04-21 10:10:00,41.1,21.7,27.69,NNW,336,3.8,9.1,45,0.00,--,--,0.00,awk and wget,2013-04-21 14:10:00,
2013-04-21 10:15:00,41.1,20.4,27.69,ESE,123,4.3,10.2,43,0.00,--,--,0.00,awk and wget,2013-04-21 14:15:00,
2013-04-21 10:20:00,41.5,20.5,27.69,NNW,335,1.3,10.2,42,0.00,--,--,0.00,awk and wget,2013-04-21 14:20:00,
2013-04-21 10:25:00,41.7,21.5,27.69,NNW,335,2.3,10.2,44,0.00,--,--,0.00,awk and wget,2013-04-21 14:25:00,
2013-04-21 10:30:00,42.6,22.5,27.69,SE,134,1.6,10.2,44,0.00,--,--,0.00,awk and wget,2013-04-21 14:30:00,
2013-04-21 10:35:00,43.0,21.0,27.69,ESE,114,5.8,10.0,41,0.00,--,--,0.00,awk and wget,2013-04-21 14:35:00,
2013-04-21 10:40:00,43.1,21.3,27.69,NE,47,3.9,10.0,41,0.00,--,--,0.00,awk and wget,2013-04-21 14:40:00,
2013-04-21 10:45:00,43.1,20.3,27.69,ENE,72,1.3,9.8,39,0.00,--,--,0.00,awk and wget,2013-04-21 14:45:00,
2013-04-21 10:50:00,43.6,20.2,27.69,SE,134,0.4,10.4,38,0.00,--,--,0.00,awk and wget,2013-04-21 14:50:00,
2013-04-21 11:00:00,45.4,21.8,27.69,NNE,30,3.3,10.4,38,0.00,--,--,0.00,awk and wget,2013-04-21 15:00:00,
2013-04-21 11:05:00,45.8,20.3,27.69,NNE,23,0.2,9.9,35,0.00,--,--,0.00,awk and wget,2013-04-21 15:05:00,
2013-04-21 11:10:00,46.1,21.4,27.68,NE,54,6.3,9.9,37,0.00,--,--,0.00,awk and wget,2013-04-21 15:10:00,
2013-04-21 11:15:00,45.2,19.4,27.68,East,99,2.6,9.9,35,0.00,--,--,0.00,awk and wget,2013-04-21 15:15:00,
2013-04-21 11:20:00,46.4,21.8,27.68,NNW,330,5.0,12.7,37,0.00,--,--,0.00,awk and wget,2013-04-21 15:20:00,
2013-04-21 11:25:00,46.7,21.5,27.68,NNW,330,4.0,13.4,36,0.00,--,--,0.00,awk and wget,2013-04-21 15:25:00,
2013-04-21 11:30:00,46.2,21.2,27.68,NNW,332,4.6,13.4,36,0.00,--,--,0.00,awk and wget,2013-04-21 15:30:00,
2013-04-21 11:35:00,45.4,20.6,27.68,ESE,122,3.0,13.4,36,0.00,--,--,0.00,awk and wget,2013-04-21 15:35:00,
2013-04-21 11:40:00,45.4,19.4,27.68,NNW,331,3.9,10.7,35,0.00,--,--,0.00,awk and wget,2013-04-21 15:40:00,
2013-04-21 11:45:00,46.6,20.3,27.68,NNW,329,2.2,10.1,34,0.00,--,--,0.00,awk and wget,2013-04-21 15:45:00,
2013-04-21 11:50:00,46.1,19.1,27.68,NNE,30,2.7,10.1,33,0.00,--,--,0.00,awk and wget,2013-04-21 15:50:00,
2013-04-21 11:55:00,47.3,19.5,27.67,East,80,3.2,11.2,32,0.00,--,--,0.00,awk and wget,2013-04-21 15:55:00,
2013-04-21 12:00:00,47.6,19.1,27.67,ESE,123,1.4,14.8,31,0.00,--,--,0.00,awk and wget,2013-04-21 16:00:00,
2013-04-21 12:10:00,47.9,21.4,27.67,East,95,11.6,14.8,34,0.00,--,--,0.00,awk and wget,2013-04-21 16:10:00,
2013-04-21 12:15:00,48.9,19.3,27.67,East,100,7.8,15.1,30,0.00,--,--,0.00,awk and wget,2013-04-21 16:15:00,
2013-04-21 12:20:00,48.7,20.3,27.67,NNW,333,9.8,15.1,32,0.00,--,--,0.00,awk and wget,2013-04-21 16:20:00,
2013-04-21 12:25:00,49.2,20.4,27.67,NE,49,7.7,15.7,31,0.00,--,--,0.00,awk and wget,2013-04-21 16:25:00,
2013-04-21 12:30:00,49.7,20.1,27.67,East,82,5.8,15.7,30,0.00,--,--,0.00,awk and wget,2013-04-21 16:30:00,
2013-04-21 12:35:00,49.5,21.5,27.66,NNW,330,4.1,16.4,32,0.00,--,--,0.00,awk and wget,2013-04-21 16:35:00,
2013-04-21 12:40:00,49.2,19.7,27.66,NNW,327,3.0,16.4,30,0.00,--,--,0.00,awk and wget,2013-04-21 16:40:00,
2013-04-21 12:45:00,49.2,18.4,27.66,NNW,327,9.1,16.4,29,0.00,--,--,0.00,awk and wget,2013-04-21 16:45:00,
2013-04-21 12:50:00,48.9,17.9,27.66,NNW,328,2.1,12.7,28,0.00,--,--,0.00,awk and wget,2013-04-21 16:50:00,
2013-04-21 12:55:00,49.9,18.3,27.66,NNW,330,1.7,12.7,28,0.00,--,--,0.00,awk and wget,2013-04-21 16:55:00,
2013-04-21 13:00:00,51.1,18.3,27.65,NE,53,0.5,11.8,26,0.00,--,--,0.00,awk and wget,2013-04-21 17:00:00,
2013-04-21 13:05:00,50.3,17.3,27.65,ENE,65,7.3,10.0,26,0.00,--,--,0.00,awk and wget,2013-04-21 17:05:00,
2013-04-21 13:10:00,50.7,18.0,27.65,ESE,112,3.0,11.0,27,0.00,--,--,0.00,awk and wget,2013-04-21 17:10:00,
2013-04-21 13:15:00,51.4,20.0,27.65,NNW,331,2.9,12.2,28,0.00,--,--,0.00,awk and wget,2013-04-21 17:15:00,
2013-04-21 13:20:00,50.0,17.4,27.65,NNW,328,12.4,12.4,27,0.00,--,--,0.00,awk and wget,2013-04-21 17:20:00,
2013-04-21 13:30:00,51.4,17.7,27.64,East,101,7.6,15.7,26,0.00,--,--,0.00,awk and wget,2013-04-21 17:30:00,
2013-04-21 13:35:00,51.6,19.8,27.64,East,90,8.2,15.7,28,0.00,--,--,0.00,awk and wget,2013-04-21 17:35:00,
2013-04-21 13:40:00,51.7,16.9,27.64,East,101,7.2,15.7,24,0.00,--,--,0.00,awk and wget,2013-04-21 17:40:00,
2013-04-21 13:45:00,52.4,18.3,27.64,SE,146,7.7,13.5,25,0.00,--,--,0.00,awk and wget,2013-04-21 17:45:00,
2013-04-21 13:50:00,52.1,18.4,27.64,North,358,7.2,13.2,26,0.00,--,--,0.00,awk and wget,2013-04-21 17:50:00,
2013-04-21 14:00:00,53.0,17.6,27.64,NNW,327,7.0,14.0,24,0.00,--,--,0.00,awk and wget,2013-04-21 18:00:00,
2013-04-21 14:05:00,52.8,17.4,27.63,NNW,338,5.8,14.0,24,0.00,--,--,0.00,awk and wget,2013-04-21 18:05:00,
2013-04-21 14:10:00,53.2,17.0,27.64,ENE,72,1.8,13.1,23,0.00,--,--,0.00,awk and wget,2013-04-21 18:10:00,
2013-04-21 14:15:00,54.4,19.3,27.64,NNW,341,9.1,13.1,25,0.00,--,--,0.00,awk and wget,2013-04-21 18:15:00,
2013-04-21 14:20:00,52.8,17.0,27.63,East,98,2.5,13.1,23,0.00,--,--,0.00,awk and wget,2013-04-21 18:20:00,
2013-04-21 14:25:00,53.6,17.6,27.63,ESE,107,4.9,15.7,23,0.00,--,--,0.00,awk and wget,2013-04-21 18:25:00,
2013-04-21 14:30:00,53.1,18.0,27.63,NNW,327,6.1,15.7,24,0.00,--,--,0.00,awk and wget,2013-04-21 18:30:00,
2013-04-21 14:35:00,54.5,18.1,27.63,ESE,115,5.8,15.7,23,0.00,--,--,0.00,awk and wget,2013-04-21 18:35:00,
2013-04-21 14:40:00,54.0,17.2,27.62,ESE,119,7.8,15.1,23,0.00,--,--,0.00,awk and wget,2013-04-21 18:40:00,
2013-04-21 14:45:00,53.9,14.7,27.62,NE,55,7.7,14.5,20,0.00,--,--,0.00,awk and wget,2013-04-21 18:45:00,
2013-04-21 14:50:00,53.8,15.8,27.62,East,101,6.2,14.5,21,0.00,--,--,0.00,awk and wget,2013-04-21 18:50:00,
2013-04-21 14:55:00,54.1,15.2,27.62,NW,326,8.0,13.8,21,0.00,--,--,0.00,awk and wget,2013-04-21 18:55:00,
2013-04-21 15:00:00,53.7,14.6,27.62,East,83,4.1,13.8,20,0.00,--,--,0.00,awk and wget,2013-04-21 19:00:00,
2013-04-21 15:10:00,55.3,17.8,27.62,ESE,119,5.1,13.1,22,0.00,--,--,0.00,awk and wget,2013-04-21 19:10:00,
2013-04-21 15:15:00,54.2,15.8,27.62,SE,141,4.8,16.0,21,0.00,--,--,0.00,awk and wget,2013-04-21 19:15:00,
2013-04-21 15:20:00,54.6,16.9,27.61,NNW,331,2.7,16.0,22,0.00,--,--,0.00,awk and wget,2013-04-21 19:20:00,
2013-04-21 15:30:00,53.7,16.0,27.61,ESE,116,6.7,14.0,22,0.00,--,--,0.00,awk and wget,2013-04-21 19:30:00,
2013-04-21 15:35:00,54.0,15.9,27.61,SE,132,3.6,17.4,21,0.00,--,--,0.00,awk and wget,2013-04-21 19:35:00,
2013-04-21 15:40:00,54.7,17.4,27.61,NW,326,8.9,17.4,22,0.00,--,--,0.00,awk and wget,2013-04-21 19:40:00,
2013-04-21 15:50:00,55.2,17.7,27.61,East,82,5.3,15.1,22,0.00,--,--,0.00,awk and wget,2013-04-21 19:50:00,
2013-04-21 15:55:00,55.2,22.7,27.61,North,9,4.3,15.0,28,0.00,--,--,0.00,awk and wget,2013-04-21 19:55:00,
2013-04-21 16:00:00,55.1,18.3,27.61,NNW,329,6.9,15.0,23,0.00,--,--,0.00,awk and wget,2013-04-21 20:00:00,
2013-04-21 16:05:00,54.6,22.1,27.60,NNE,16,8.7,15.0,27,0.00,--,--,0.00,awk and wget,2013-04-21 20:05:00,
2013-04-21 16:10:00,54.5,23.4,27.60,NNW,331,6.8,14.1,29,0.00,--,--,0.00,awk and wget,2013-04-21 20:10:00,
2013-04-21 16:15:00,53.6,21.9,27.60,North,353,8.7,18.1,28,0.00,--,--,0.00,awk and wget,2013-04-21 20:15:00,
2013-04-21 16:20:00,53.8,22.5,27.60,North,11,9.2,18.1,29,0.00,--,--,0.00,awk and wget,2013-04-21 20:20:00,
2013-04-21 16:25:00,54.5,24.2,27.60,East,97,4.0,18.1,30,0.00,--,--,0.00,awk and wget,2013-04-21 20:25:00,
2013-04-21 16:30:00,55.2,23.9,27.60,NNW,331,4.0,16.4,29,0.00,--,--,0.00,awk and wget,2013-04-21 20:30:00,
2013-04-21 16:35:00,55.0,23.5,27.60,ENE,75,5.3,16.4,29,0.00,--,--,0.00,awk and wget,2013-04-21 20:35:00,
2013-04-21 16:40:00,54.8,23.1,27.60,NNW,327,3.7,16.4,28,0.00,--,--,0.00,awk and wget,2013-04-21 20:40:00,
2013-04-21 16:45:00,54.9,20.6,27.60,NW,326,4.0,14.5,26,0.00,--,--,0.00,awk and wget,2013-04-21 20:45:00,
2013-04-21 16:50:00,56.4,21.2,27.59,NW,326,4.3,16.9,25,0.00,--,--,0.00,awk and wget,2013-04-21 20:50:00,
2013-04-21 16:55:00,55.0,18.7,27.59,NW,326,9.6,16.9,23,0.00,--,--,0.00,awk and wget,2013-04-21 20:55:00,
2013-04-21 17:00:00,56.1,19.5,27.60,NNW,328,5.3,16.9,23,0.00,--,--,0.00,awk and wget,2013-04-21 21:00:00,
2013-04-21 17:05:00,56.1,19.3,27.59,NNW,328,2.5,14.7,23,0.00,--,--,0.00,awk and wget,2013-04-21 21:05:00,
2013-04-21 17:10:00,55.8,22.4,27.59,NNW,330,8.4,14.7,27,0.00,--,--,0.00,awk and wget,2013-04-21 21:10:00,
2013-04-21 17:15:00,56.0,23.6,27.59,NNW,330,6.5,14.7,28,0.00,--,--,0.00,awk and wget,2013-04-21 21:15:00,
2013-04-21 17:20:00,55.2,21.6,27.59,North,7,2.9,15.4,26,0.00,--,--,0.00,awk and wget,2013-04-21 21:20:00,
2013-04-21 17:30:00,55.5,21.4,27.59,NW,326,3.3,15.4,26,0.00,--,--,0.00,awk and wget,2013-04-21 21:30:00,
2013-04-21 17:35:00,55.8,21.6,27.59,NNW,330,7.0,18.1,26,0.00,--,--,0.00,awk and wget,2013-04-21 21:35:00,
2013-04-21 17:40:00,54.9,21.7,27.59,NW,326,15.6,18.4,27,0.00,--,--,0.00,awk and wget,2013-04-21 21:40:00,
2013-04-21 17:45:00,54.9,22.8,27.59,NNW,329,1.9,18.4,28,0.00,--,--,0.00,awk and wget,2013-04-21 21:45:00,
2013-04-21 17:50:00,54.5,24.3,27.60,ESE,122,10.8,18.4,30,0.00,--,--,0.00,awk and wget,2013-04-21 21:50:00,
2013-04-21 18:00:00,53.8,25.7,27.60,North,359,8.6,12.8,33,0.00,--,--,0.00,awk and wget,2013-04-21 22:00:00,
2013-04-21 18:05:00,53.8,24.6,27.60,SE,124,10.4,12.8,31,0.00,--,--,0.00,awk and wget,2013-04-21 22:05:00,
2013-04-21 18:10:00,54.3,25.2,27.60,ENE,69,12.3,12.8,32,0.00,--,--,0.00,awk and wget,2013-04-21 22:10:00,
2013-04-21 18:20:00,52.2,24.3,27.61,ESE,123,22.9,22.9,33,0.00,--,--,0.00,awk and wget,2013-04-21 22:20:00,
2013-04-21 18:30:00,52.5,24.6,27.61,NW,326,6.6,18.2,33,0.00,--,--,0.00,awk and wget,2013-04-21 22:30:00,
2013-04-21 18:40:00,51.3,25.3,27.61,ESE,123,8.1,16.6,36,0.00,--,--,0.00,awk and wget,2013-04-21 22:40:00,
2013-04-21 18:45:00,51.4,25.7,27.61,SE,139,6.8,16.6,36,0.00,--,--,0.00,awk and wget,2013-04-21 22:45:00,
2013-04-21 18:50:00,51.1,25.2,27.61,ESE,117,8.4,15.8,36,0.00,--,--,0.00,awk and wget,2013-04-21 22:50:00,
2013-04-21 18:55:00,51.6,25.3,27.61,NNW,327,4.7,15.7,35,0.00,--,--,0.00,awk and wget,2013-04-21 22:55:00,
2013-04-21 19:00:00,51.3,25.4,27.62,NE,48,3.2,15.3,36,0.00,--,--,0.00,awk and wget,2013-04-21 23:00:00,
2013-04-21 19:05:00,50.7,26.5,27.62,East,99,8.5,15.7,38,0.00,--,--,0.00,awk and wget,2013-04-21 23:05:00,
2013-04-21 19:10:00,50.1,26.5,27.62,ESE,119,10.9,15.7,39,0.00,--,--,0.00,awk and wget,2013-04-21 23:10:00,
2013-04-21 19:15:00,49.8,26.6,27.62,SE,128,10.1,16.3,40,0.00,--,--,0.00,awk and wget,2013-04-21 23:15:00,
2013-04-21 19:20:00,49.4,26.2,27.62,NNW,331,5.4,16.3,40,0.00,--,--,0.00,awk and wget,2013-04-21 23:20:00,
2013-04-21 19:25:00,49.2,26.3,27.62,East,90,7.2,16.3,40,0.00,--,--,0.00,awk and wget,2013-04-21 23:25:00,
2013-04-21 19:30:00,48.7,26.6,27.62,ENE,58,4.6,14.7,41,0.00,--,--,0.00,awk and wget,2013-04-21 23:30:00,
2013-04-21 19:35:00,48.7,25.8,27.62,NNW,330,2.7,14.0,40,0.00,--,--,0.00,awk and wget,2013-04-21 23:35:00,
2013-04-21 19:40:00,48.5,25.7,27.62,NNW,329,4.4,14.5,40,0.00,--,--,0.00,awk and wget,2013-04-21 23:40:00,
2013-04-21 19:45:00,48.3,25.8,27.62,NNW,332,2.7,14.5,41,0.00,--,--,0.00,awk and wget,2013-04-21 23:45:00,
2013-04-21 19:50:00,48.0,25.9,27.63,NNW,332,3.4,14.5,41,0.00,--,--,0.00,awk and wget,2013-04-21 23:50:00,
2013-04-21 19:55:00,48.0,25.8,27.63,East,100,3.6,14.0,41,0.00,--,--,0.00,awk and wget,2013-04-21 23:55:00,
2013-04-21 20:00:00,47.5,26.3,27.63,SE,146,6.7,14.0,43,0.00,--,--,0.00,awk and wget,2013-04-22 00:00:00,
2013-04-21 20:10:00,47.0,26.6,27.63,SE,137,5.1,17.3,44,0.00,--,--,0.00,awk and wget,2013-04-22 00:10:00,
2013-04-21 20:15:00,46.9,26.6,27.64,NNW,343,4.1,17.3,44,0.00,--,--,0.00,awk and wget,2013-04-22 00:15:00,
2013-04-21 20:20:00,46.5,26.6,27.64,NNW,343,4.2,16.8,45,0.00,--,--,0.00,awk and wget,2013-04-22 00:20:00,
2013-04-21 20:25:00,45.7,26.9,27.64,SE,134,2.9,16.8,47,0.00,--,--,0.00,awk and wget,2013-04-22 00:25:00,
2013-04-21 20:30:00,46.2,26.4,27.64,SE,131,3.5,12.7,45,0.00,--,--,0.00,awk and wget,2013-04-22 00:30:00,
2013-04-21 20:40:00,45.7,26.5,27.64,NNW,333,2.7,12.7,46,0.00,--,--,0.00,awk and wget,2013-04-22 00:40:00,
2013-04-21 20:45:00,45.5,26.5,27.64,North,3,2.9,13.4,47,0.00,--,--,0.00,awk and wget,2013-04-22 00:45:00,
2013-04-21 20:50:00,44.8,27.8,27.64,NNW,334,0.8,13.4,51,0.00,--,--,0.00,awk and wget,2013-04-22 00:50:00,
2013-04-21 20:55:00,44.2,27.2,27.64,NNW,333,2.9,13.4,50,0.00,--,--,0.00,awk and wget,2013-04-22 00:55:00,
2013-04-21 21:00:00,44.6,26.5,27.65,NNE,20,2.4,12.0,48,0.00,--,--,0.00,awk and wget,2013-04-22 01:00:00,
2013-04-21 21:05:00,44.2,27.0,27.65,ESE,106,4.6,13.4,50,0.00,--,--,0.00,awk and wget,2013-04-22 01:05:00,
2013-04-21 21:10:00,44.3,26.5,27.65,SE,131,3.5,13.4,49,0.00,--,--,0.00,awk and wget,2013-04-22 01:10:00,
2013-04-21 21:15:00,43.8,27.1,27.66,SSE,155,3.4,13.4,51,0.00,--,--,0.00,awk and wget,2013-04-22 01:15:00,
2013-04-21 21:20:00,44.3,26.5,27.66,NNW,333,2.9,11.5,49,0.00,--,--,0.00,awk and wget,2013-04-22 01:20:00,
2013-04-21 21:25:00,43.7,27.1,27.66,ESE,120,2.6,11.5,51,0.00,--,--,0.00,awk and wget,2013-04-22 01:25:00,
2013-04-21 21:30:00,43.7,26.6,27.66,NNW,333,3.5,14.9,50,0.00,--,--,0.00,awk and wget,2013-04-22 01:30:00,
2013-04-21 21:35:00,43.9,26.7,27.67,NNW,336,4.3,14.9,50,0.00,--,--,0.00,awk and wget,2013-04-22 01:35:00,
2013-04-21 21:40:00,43.9,26.7,27.67,ESE,113,4.0,14.9,50,0.00,--,--,0.00,awk and wget,2013-04-22 01:40:00,
2013-04-21 21:45:00,43.1,26.8,27.67,NNW,335,1.1,14.6,52,0.00,--,--,0.00,awk and wget,2013-04-22 01:45:00,
2013-04-21 21:50:00,42.5,27.5,27.67,NNW,335,3.6,14.6,55,0.00,--,--,0.00,awk and wget,2013-04-22 01:50:00,
2013-04-21 21:55:00,42.7,27.3,27.67,SE,135,2.4,14.6,54,0.00,--,--,0.00,awk and wget,2013-04-22 01:55:00,
2013-04-21 22:00:00,42.3,26.9,27.67,NNW,335,2.3,12.4,53,0.00,--,--,0.00,awk and wget,2013-04-22 02:00:00,
2013-04-21 22:05:00,42.2,26.6,27.67,NNW,336,5.7,11.6,53,0.00,--,--,0.00,awk and wget,2013-04-22 02:05:00,
2013-04-21 22:10:00,42.7,26.8,27.67,NNW,336,4.1,11.9,52,0.00,--,--,0.00,awk and wget,2013-04-22 02:10:00,
2013-04-21 22:15:00,42.8,26.6,27.67,NNW,336,2.0,11.9,52,0.00,--,--,0.00,awk and wget,2013-04-22 02:15:00,
2013-04-21 22:20:00,42.6,26.5,27.67,NNW,331,3.3,15.6,52,0.00,--,--,0.00,awk and wget,2013-04-22 02:20:00,
2013-04-21 22:25:00,42.5,26.9,27.67,NNW,336,1.8,15.6,53,0.00,--,--,0.00,awk and wget,2013-04-22 02:25:00,
2013-04-21 22:30:00,42.2,26.5,27.67,ENE,62,4.0,15.6,53,0.00,--,--,0.00,awk and wget,2013-04-22 02:30:00,
2013-04-21 22:35:00,42.3,26.5,27.67,NNW,333,3.9,13.2,53,0.00,--,--,0.00,awk and wget,2013-04-22 02:35:00,
2013-04-21 22:40:00,42.2,26.5,27.67,NNW,331,8.9,13.2,53,0.00,--,--,0.00,awk and wget,2013-04-22 02:40:00,
2013-04-21 22:45:00,42.2,26.4,27.67,NNW,336,4.6,15.2,53,0.00,--,--,0.00,awk and wget,2013-04-22 02:45:00,
2013-04-21 22:50:00,42.0,26.4,27.67,NNW,332,5.9,15.2,53,0.00,--,--,0.00,awk and wget,2013-04-22 02:50:00,
2013-04-21 23:00:00,42.3,26.0,27.68,NNW,334,5.4,15.9,52,0.00,--,--,0.00,awk and wget,2013-04-22 03:00:00,
2013-04-21 23:05:00,42.2,26.0,27.68,NNW,342,5.3,15.9,52,0.00,--,--,0.00,awk and wget,2013-04-22 03:05:00,
2013-04-21 23:10:00,42.1,26.1,27.68,SE,140,5.4,14.1,52,0.00,--,--,0.00,awk and wget,2013-04-22 03:10:00,
2013-04-21 23:15:00,42.1,25.9,27.68,NNE,15,9.4,14.1,52,0.00,--,--,0.00,awk and wget,2013-04-22 03:15:00,
2013-04-21 23:20:00,42.0,26.0,27.68,NNW,337,7.0,8.8,52,0.00,--,--,0.00,awk and wget,2013-04-22 03:20:00,
2013-04-21 23:25:00,41.7,26.2,27.68,NNW,337,6.4,8.8,53,0.00,--,--,0.00,awk and wget,2013-04-22 03:25:00,
2013-04-21 23:30:00,41.7,26.2,27.68,SE,146,3.6,8.5,53,0.00,--,--,0.00,awk and wget,2013-04-22 03:30:00,
2013-04-21 23:35:00,41.6,25.9,27.68,NNW,341,7.9,8.5,53,0.00,--,--,0.00,awk and wget,2013-04-22 03:35:00,
2013-04-21 23:40:00,41.5,25.8,27.68,NNW,336,5.8,10.4,53,0.00,--,--,0.00,awk and wget,2013-04-22 03:40:00,
2013-04-21 23:50:00,41.2,26.0,27.68,SE,137,6.5,11.7,54,0.00,--,--,0.00,awk and wget,2013-04-22 03:50:00,